createdAt,value
2017-08-12T00:00:11.971Z,12.20
2017-08-12T00:02:39.467Z,12.20
2017-08-12T00:05:06.982Z,12.10
2017-08-12T00:07:34.480Z,12.10
2017-08-12T00:10:01.975Z,12.10
2017-08-12T00:12:30.263Z,12.20
2017-08-12T00:14:57.763Z,12.20
2017-08-12T00:17:25.297Z,12.20
2017-08-12T00:19:52.799Z,12.20
2017-08-12T00:22:21.066Z,12.20
2017-08-12T00:24:48.582Z,12.20
2017-08-12T00:27:16.078Z,12.20
2017-08-12T00:29:43.591Z,12.20
2017-08-12T00:32:11.096Z,12.10
2017-08-12T00:34:38.590Z,12.20
2017-08-12T00:37:06.871Z,12.10
2017-08-12T00:39:35.143Z,12.20
2017-08-12T00:42:03.430Z,12.10
2017-08-12T00:44:31.690Z,12.10
2017-08-12T00:46:59.981Z,12.20
2017-08-12T00:49:28.259Z,12.10
2017-08-12T00:51:56.105Z,12.10
2017-08-12T00:54:23.619Z,12.10
2017-08-12T00:56:51.114Z,12.10
2017-08-12T00:59:18.616Z,12.10
2017-08-12T01:01:46.592Z,12.10
2017-08-12T01:04:14.092Z,12.10
2017-08-12T01:06:41.611Z,12.10
2017-08-12T01:09:09.107Z,12.10
2017-08-12T01:11:36.602Z,12.10
2017-08-12T01:14:04.114Z,12.00
2017-08-12T01:16:31.615Z,12.10
2017-08-12T01:18:59.134Z,12.00
2017-08-12T01:21:26.639Z,12.00
2017-08-12T01:23:54.159Z,12.00
2017-08-12T01:26:21.663Z,12.00
2017-08-12T01:28:49.171Z,12.00
2017-08-12T01:31:16.683Z,11.90
2017-08-12T01:33:44.183Z,12.10
2017-08-12T01:36:11.715Z,12.00
2017-08-12T01:38:39.215Z,12.00
2017-08-12T01:41:06.719Z,11.90
2017-08-12T01:43:34.531Z,12.00
2017-08-12T01:46:02.039Z,12.10
2017-08-12T01:48:29.558Z,12.10
2017-08-12T01:50:57.833Z,12.10
2017-08-12T01:53:25.358Z,12.10
2017-08-12T01:55:52.855Z,12.10
2017-08-12T01:58:21.122Z,12.10
2017-08-12T02:00:48.875Z,12.00
2017-08-12T02:03:16.383Z,12.00
2017-08-12T02:05:43.898Z,12.00
2017-08-12T02:10:42.031Z,12.00
2017-08-12T02:13:09.530Z,12.00
2017-08-12T02:15:37.030Z,12.00
2017-08-12T02:18:04.553Z,12.00
2017-08-12T02:20:32.068Z,12.00
2017-08-12T02:22:59.595Z,12.00
2017-08-12T02:25:27.864Z,12.00
2017-08-12T02:27:56.158Z,12.00
2017-08-12T02:30:23.662Z,12.00
2017-08-12T02:32:51.183Z,12.00
2017-08-12T02:35:18.693Z,12.00
2017-08-12T02:37:46.196Z,12.00
2017-08-12T02:40:13.715Z,12.00
2017-08-12T02:42:41.221Z,11.90
2017-08-12T02:45:08.742Z,11.90
2017-08-12T02:47:37.014Z,12.00
2017-08-12T02:50:04.543Z,11.90
2017-08-12T02:52:32.059Z,12.00
2017-08-12T02:54:59.575Z,12.00
2017-08-12T02:57:27.099Z,12.10
2017-08-12T02:59:54.598Z,12.00
2017-08-12T03:02:22.118Z,12.10
2017-08-12T03:04:49.627Z,12.00
2017-08-12T03:07:17.940Z,12.00
2017-08-12T03:09:45.457Z,12.00
2017-08-12T03:12:12.964Z,12.00
2017-08-12T03:14:40.483Z,12.00
2017-08-12T03:17:08.758Z,12.00
2017-08-12T03:19:37.042Z,11.90
2017-08-12T03:22:05.315Z,12.00
2017-08-12T03:24:33.603Z,12.00
2017-08-12T03:27:01.106Z,12.00
2017-08-12T03:29:28.647Z,12.00
2017-08-12T03:31:56.454Z,12.00
2017-08-12T03:34:23.955Z,12.00
2017-08-12T03:36:51.471Z,12.00
2017-08-12T03:39:19.121Z,12.00
2017-08-12T03:41:46.755Z,11.90
2017-08-12T03:44:14.252Z,11.90
2017-08-12T03:46:41.774Z,11.90
2017-08-12T03:49:09.279Z,11.90
2017-08-12T03:51:37.543Z,11.90
2017-08-12T03:54:05.071Z,11.90
2017-08-12T03:56:32.570Z,11.90
2017-08-12T03:59:00.858Z,12.00
2017-08-12T04:01:28.361Z,11.90
2017-08-12T04:03:55.879Z,12.00
2017-08-12T04:06:23.391Z,12.00
2017-08-12T04:08:51.174Z,11.90
2017-08-12T04:11:18.675Z,12.00
2017-08-12T04:13:46.179Z,11.90
2017-08-12T04:16:13.701Z,11.90
2017-08-12T04:18:41.194Z,11.90
2017-08-12T04:21:08.715Z,12.00
2017-08-12T04:23:36.219Z,11.90
2017-08-12T04:26:03.751Z,12.00
2017-08-12T04:28:31.551Z,12.00
2017-08-12T04:30:59.065Z,11.90
2017-08-12T04:33:26.591Z,12.00
2017-08-12T04:35:54.094Z,11.90
2017-08-12T04:38:21.606Z,11.90
2017-08-12T04:40:49.875Z,11.90
2017-08-12T04:43:17.403Z,11.90
2017-08-12T04:48:22.382Z,11.90
2017-08-12T04:50:50.646Z,12.00
2017-08-12T04:53:18.162Z,11.90
2017-08-12T04:55:45.668Z,11.90
2017-08-12T04:58:13.930Z,12.10
2017-08-12T05:00:41.452Z,12.10
2017-08-12T05:03:08.955Z,12.00
2017-08-12T05:05:36.469Z,12.10
2017-08-12T05:08:03.971Z,12.10
2017-08-12T05:10:32.261Z,12.10
2017-08-12T05:13:00.551Z,12.20
2017-08-12T05:15:28.055Z,12.20
2017-08-12T05:17:55.575Z,12.30
2017-08-12T05:20:23.078Z,12.30
2017-08-12T05:22:50.614Z,12.30
2017-08-12T05:25:18.111Z,12.30
2017-08-12T05:27:45.606Z,12.30
2017-08-12T05:30:13.127Z,12.40
2017-08-12T05:32:40.635Z,12.40
2017-08-12T05:35:08.159Z,12.30
2017-08-12T05:37:36.426Z,12.30
2017-08-12T05:40:04.719Z,12.40
2017-08-12T05:42:32.223Z,12.40
2017-08-12T05:44:59.728Z,12.40
2017-08-12T05:47:28.028Z,12.40
2017-08-12T05:49:55.530Z,12.30
2017-08-12T05:52:23.051Z,12.30
2017-08-12T05:54:50.551Z,12.40
2017-08-12T05:57:18.094Z,12.30
2017-08-12T05:59:45.590Z,12.40
2017-08-12T06:02:13.851Z,12.40
2017-08-12T06:04:41.362Z,12.40
2017-08-12T06:07:08.867Z,12.40
2017-08-12T06:09:36.387Z,12.40
2017-08-12T06:12:03.895Z,12.50
2017-08-12T06:14:31.418Z,12.50
2017-08-12T06:16:58.923Z,12.50
2017-08-12T06:19:26.421Z,12.50
2017-08-12T06:21:53.947Z,12.50
2017-08-12T06:24:21.456Z,12.40
2017-08-12T06:26:48.971Z,12.40
2017-08-12T06:29:16.475Z,12.40
2017-08-12T06:31:44.018Z,12.40
2017-08-12T06:34:11.511Z,12.40
2017-08-12T06:36:39.011Z,12.30
2017-08-12T06:39:06.526Z,12.30
2017-08-12T06:41:34.802Z,12.40
2017-08-12T06:44:03.087Z,12.40
2017-08-12T06:46:31.359Z,12.50
2017-08-12T06:48:59.666Z,12.50
2017-08-12T06:51:27.163Z,12.50
2017-08-12T06:53:54.663Z,12.50
2017-08-12T06:56:22.939Z,12.70
2017-08-12T06:58:50.442Z,12.70
2017-08-12T07:01:17.965Z,12.70
2017-08-12T07:03:45.462Z,12.70
2017-08-12T07:06:12.986Z,12.80
2017-08-12T07:08:40.487Z,12.80
2017-08-12T07:11:07.989Z,12.70
2017-08-12T07:13:35.507Z,12.80
2017-08-12T07:16:03.010Z,12.90
2017-08-12T07:18:30.523Z,12.90
2017-08-12T07:20:58.018Z,13.00
2017-08-12T07:23:26.304Z,13.10
2017-08-12T07:25:53.812Z,13.10
2017-08-12T07:28:21.351Z,13.10
2017-08-12T07:30:48.851Z,13.10
2017-08-12T07:33:16.351Z,13.10
2017-08-12T07:35:43.871Z,13.10
2017-08-12T07:38:12.174Z,13.00
2017-08-12T07:40:39.683Z,13.00
2017-08-12T07:43:07.179Z,13.10
2017-08-12T07:45:35.464Z,12.90
2017-08-12T07:48:02.965Z,12.90
2017-08-12T07:50:30.466Z,13.00
2017-08-12T07:52:57.988Z,13.00
2017-08-12T07:55:25.491Z,13.00
2017-08-12T07:57:53.010Z,13.00
2017-08-12T08:00:20.507Z,13.00
2017-08-12T08:02:48.788Z,12.90
2017-08-12T08:05:16.282Z,12.90
2017-08-12T08:07:43.786Z,13.00
2017-08-12T08:10:12.259Z,13.10
2017-08-12T08:12:39.767Z,13.10
2017-08-12T08:15:07.283Z,13.40
2017-08-12T08:17:35.559Z,14.10
2017-08-12T08:20:03.843Z,14.20
2017-08-12T08:22:32.122Z,14.10
2017-08-12T08:25:00.387Z,14.10
2017-08-12T08:27:27.914Z,14.00
2017-08-12T08:29:55.420Z,13.90
2017-08-12T08:32:22.955Z,13.90
2017-08-12T08:34:50.457Z,14.10
2017-08-12T08:37:17.958Z,14.40
2017-08-12T08:39:45.477Z,14.60
2017-08-12T08:42:12.979Z,14.60
2017-08-12T08:44:40.494Z,14.60
2017-08-12T08:47:07.995Z,14.60
2017-08-12T08:49:35.536Z,14.60
2017-08-12T08:52:03.034Z,14.50
2017-08-12T08:54:30.532Z,14.50
2017-08-12T08:56:58.073Z,14.70
2017-08-12T08:59:25.577Z,14.70
2017-08-12T09:01:53.091Z,14.70
2017-08-12T09:04:20.595Z,14.70
2017-08-12T09:06:48.134Z,14.60
2017-08-12T09:09:15.640Z,14.60
2017-08-12T09:11:43.907Z,14.50
2017-08-12T09:14:12.199Z,14.30
2017-08-12T09:16:39.698Z,14.30
2017-08-12T09:19:07.211Z,14.20
2017-08-12T09:21:35.474Z,13.80
2017-08-12T09:24:03.784Z,13.60
2017-08-12T09:26:31.287Z,13.60
2017-08-12T09:28:58.795Z,13.40
2017-08-12T09:31:26.319Z,13.30
2017-08-12T09:33:54.595Z,13.30
2017-08-12T09:36:22.202Z,13.30
2017-08-12T09:38:49.707Z,13.30
2017-08-12T09:41:17.231Z,13.30
2017-08-12T09:43:44.730Z,13.40
2017-08-12T09:46:12.262Z,13.40
2017-08-12T09:48:39.758Z,13.60
2017-08-12T09:51:08.032Z,13.50
2017-08-12T09:53:35.555Z,13.50
2017-08-12T09:56:03.054Z,13.50
2017-08-12T09:58:30.574Z,13.40
2017-08-12T10:00:58.075Z,13.60
2017-08-12T10:03:25.600Z,13.50
2017-08-12T10:05:53.104Z,13.60
2017-08-12T10:08:20.623Z,13.60
2017-08-12T10:10:48.128Z,13.50
2017-08-12T10:13:15.671Z,13.40
2017-08-12T10:15:43.167Z,13.40
2017-08-12T10:18:10.671Z,13.50
2017-08-12T10:20:38.951Z,13.80
2017-08-12T10:23:07.224Z,13.90
2017-08-12T10:25:35.507Z,13.80
2017-08-12T10:28:03.778Z,13.90
2017-08-12T10:30:32.060Z,13.90
2017-08-12T10:32:59.555Z,13.90
2017-08-12T10:35:27.105Z,13.70
2017-08-12T10:37:54.606Z,13.70
2017-08-12T10:40:22.120Z,13.60
2017-08-12T10:42:49.630Z,13.50
2017-08-12T10:45:17.131Z,13.50
2017-08-12T10:47:44.650Z,13.50
2017-08-12T10:50:12.356Z,13.90
2017-08-12T10:52:39.870Z,14.30
2017-08-12T10:55:07.366Z,14.60
2017-08-12T10:57:34.904Z,14.90
2017-08-12T11:00:02.408Z,15.10
2017-08-12T11:02:29.911Z,15.40
2017-08-12T11:04:58.195Z,15.90
2017-08-12T11:07:26.454Z,15.90
2017-08-12T11:09:53.971Z,15.90
2017-08-12T11:12:21.472Z,15.90
2017-08-12T11:14:48.996Z,16.00
2017-08-12T11:17:16.495Z,16.10
2017-08-12T11:19:44.779Z,16.40
2017-08-12T11:22:12.286Z,16.30
2017-08-12T11:24:39.791Z,16.60
2017-08-12T11:27:08.070Z,16.50
2017-08-12T11:29:35.568Z,16.50
2017-08-12T11:32:03.090Z,16.60
2017-08-12T11:34:30.591Z,16.80
2017-08-12T11:36:58.113Z,16.50
2017-08-12T11:39:25.606Z,16.20
2017-08-12T11:41:53.126Z,16.20
2017-08-12T11:44:20.623Z,16.20
2017-08-12T11:46:48.123Z,16.00
2017-08-12T11:49:16.407Z,16.10
2017-08-12T11:51:43.923Z,16.10
2017-08-12T11:54:11.443Z,16.30
2017-08-12T11:56:38.950Z,16.50
2017-08-12T11:59:06.459Z,16.30
2017-08-12T12:01:33.955Z,16.20
2017-08-12T12:04:01.495Z,16.10
2017-08-12T12:06:29.006Z,16.10
2017-08-12T12:08:57.267Z,16.40
2017-08-12T12:11:24.774Z,16.40
2017-08-12T12:13:52.276Z,16.20
2017-08-12T12:16:20.119Z,16.10
2017-08-12T12:18:47.615Z,15.90
2017-08-12T12:21:15.136Z,15.70
2017-08-12T12:23:42.636Z,15.50
2017-08-12T12:26:10.943Z,15.30
2017-08-12T12:28:38.459Z,15.30
2017-08-12T12:31:05.955Z,15.40
2017-08-12T12:33:33.479Z,15.10
2017-08-12T12:36:00.974Z,15.00
2017-08-12T12:38:28.500Z,15.10
2017-08-12T12:40:56.767Z,15.50
2017-08-12T12:43:24.291Z,15.50
2017-08-12T12:45:52.094Z,15.30
2017-08-12T12:48:19.619Z,15.20
2017-08-12T12:50:47.123Z,15.30
2017-08-12T12:53:14.618Z,15.10
2017-08-12T12:55:42.139Z,14.80
2017-08-12T12:58:09.643Z,14.80
2017-08-12T13:00:37.158Z,14.90
2017-08-12T13:03:05.426Z,15.10
2017-08-12T13:05:33.705Z,15.30
2017-08-12T13:08:01.974Z,15.20
2017-08-12T13:10:29.486Z,15.20
2017-08-12T13:12:56.987Z,15.10
2017-08-12T13:15:24.531Z,15.10
2017-08-12T13:17:52.027Z,15.20
2017-08-12T13:20:19.525Z,15.30
2017-08-12T13:22:47.052Z,15.30
2017-08-12T13:25:14.546Z,15.30
2017-08-12T13:27:42.068Z,15.40
2017-08-12T13:30:09.563Z,15.50
2017-08-12T13:32:37.079Z,15.40
2017-08-12T13:35:04.575Z,15.60
2017-08-12T13:37:32.094Z,15.90
2017-08-12T13:39:59.602Z,15.90
2017-08-12T13:42:27.099Z,16.20
2017-08-12T13:44:54.623Z,16.00
2017-08-12T13:47:22.124Z,16.10
2017-08-12T13:49:49.647Z,16.20
2017-08-12T13:52:17.143Z,16.20
2017-08-12T13:54:44.658Z,16.10
2017-08-12T13:57:12.155Z,16.20
2017-08-12T13:59:39.690Z,16.40
2017-08-12T14:02:07.198Z,16.60
2017-08-12T14:04:35.066Z,16.70
2017-08-12T14:07:02.575Z,16.70
2017-08-12T14:09:30.081Z,16.60
2017-08-12T14:11:57.610Z,16.80
2017-08-12T14:14:25.111Z,16.80
2017-08-12T14:16:52.635Z,16.70
2017-08-12T14:19:20.130Z,16.80
2017-08-12T14:21:47.671Z,16.90
2017-08-12T14:24:15.167Z,16.80
2017-08-12T14:26:42.671Z,16.70
2017-08-12T14:29:10.182Z,16.70
2017-08-12T14:31:37.686Z,16.80
2017-08-12T14:34:05.207Z,16.90
2017-08-12T14:36:32.710Z,16.60
2017-08-12T14:39:00.223Z,16.70
2017-08-12T14:41:27.728Z,16.60
2017-08-12T14:43:55.271Z,16.80
2017-08-12T14:46:22.771Z,16.70
2017-08-12T14:48:50.287Z,16.60
2017-08-12T14:51:17.820Z,16.60
2017-08-12T14:53:45.328Z,16.80
2017-08-12T14:56:12.846Z,16.80
2017-08-12T14:58:41.116Z,16.60
2017-08-12T15:01:08.632Z,16.60
2017-08-12T15:03:36.132Z,16.70
2017-08-12T15:06:03.646Z,16.60
2017-08-12T15:08:31.146Z,16.60
2017-08-12T15:10:58.650Z,16.50
2017-08-12T15:13:26.167Z,16.50
2017-08-12T15:15:53.667Z,16.50
2017-08-12T15:18:21.179Z,16.40
2017-08-12T15:20:48.679Z,16.50
2017-08-12T15:23:16.187Z,16.40
2017-08-12T15:25:43.699Z,16.40
2017-08-12T15:28:11.222Z,16.30
2017-08-12T15:30:39.492Z,16.40
2017-08-12T15:33:07.770Z,16.40
2017-08-12T15:35:36.052Z,16.30
2017-08-12T15:38:04.325Z,16.40
2017-08-12T15:40:32.741Z,16.20
2017-08-12T15:43:00.261Z,16.20
2017-08-12T15:45:28.550Z,16.30
2017-08-12T15:47:56.046Z,16.20
2017-08-12T15:50:23.551Z,16.20
2017-08-12T15:52:51.070Z,16.30
2017-08-12T15:55:18.574Z,16.20
2017-08-12T15:57:46.092Z,16.20
2017-08-12T16:00:14.430Z,16.10
2017-08-12T16:02:41.976Z,16.30
2017-08-12T16:05:09.476Z,16.30
2017-08-12T16:07:36.984Z,16.30
2017-08-12T16:10:05.266Z,16.30
2017-08-12T16:12:33.537Z,16.20
2017-08-12T16:15:01.076Z,16.20
2017-08-12T16:17:28.579Z,16.30
2017-08-12T16:19:56.111Z,16.30
2017-08-12T16:22:23.623Z,16.30
2017-08-12T16:24:51.122Z,16.10
2017-08-12T16:27:19.410Z,16.10
2017-08-12T16:29:46.915Z,16.10
2017-08-12T16:32:14.431Z,16.10
2017-08-12T16:34:41.927Z,16.10
2017-08-12T16:37:09.461Z,16.10
2017-08-12T16:39:36.954Z,16.10
2017-08-12T16:42:04.447Z,16.00
2017-08-12T16:44:32.727Z,16.00
2017-08-12T16:47:00.997Z,15.90
2017-08-12T16:49:29.291Z,15.80
2017-08-12T16:51:56.791Z,15.80
2017-08-12T16:54:24.320Z,15.70
2017-08-12T16:56:51.823Z,15.70
2017-08-12T16:59:19.327Z,15.70
2017-08-12T17:01:46.851Z,15.70
2017-08-12T17:04:14.352Z,15.60
2017-08-12T17:06:41.866Z,15.70
2017-08-12T17:09:09.367Z,15.90
2017-08-12T17:11:36.890Z,15.80
2017-08-12T17:14:04.387Z,15.90
2017-08-12T17:16:31.891Z,15.80
2017-08-12T17:18:59.411Z,15.60
2017-08-12T17:21:26.903Z,15.60
2017-08-12T17:23:54.415Z,15.80
2017-08-12T17:26:21.923Z,15.80
2017-08-12T17:28:49.462Z,15.80
2017-08-12T17:31:16.958Z,15.80
2017-08-12T17:33:45.227Z,15.90
2017-08-12T17:36:12.747Z,15.90
2017-08-12T17:38:40.266Z,15.80
2017-08-12T17:41:07.782Z,15.90
2017-08-12T17:43:35.274Z,15.80
2017-08-12T17:46:02.811Z,15.70
2017-08-12T17:48:30.311Z,15.60
2017-08-12T17:50:57.810Z,15.60
2017-08-12T17:53:25.323Z,15.50
2017-08-12T17:55:52.829Z,15.50
2017-08-12T17:58:20.351Z,15.60
2017-08-12T18:00:47.846Z,15.40
2017-08-12T18:03:15.363Z,15.60
2017-08-12T18:05:42.862Z,15.60
2017-08-12T18:08:10.399Z,15.60
2017-08-12T18:10:37.898Z,15.60
2017-08-12T18:13:05.394Z,15.40
2017-08-12T18:15:32.916Z,15.40
2017-08-12T18:18:00.419Z,15.30
2017-08-12T18:20:27.939Z,15.20
2017-08-12T18:22:56.201Z,15.20
2017-08-12T18:25:23.723Z,15.20
2017-08-12T18:27:51.227Z,15.20
2017-08-12T18:30:18.738Z,15.10
2017-08-12T18:32:46.258Z,14.90
2017-08-12T18:35:13.759Z,14.80
2017-08-12T18:37:41.284Z,14.70
2017-08-12T18:40:08.788Z,14.70
2017-08-12T18:42:36.286Z,14.80
2017-08-12T18:45:03.814Z,14.70
2017-08-12T18:47:31.337Z,14.70
2017-08-12T18:49:58.883Z,14.70
2017-08-12T18:52:26.392Z,14.60
2017-08-12T18:54:53.899Z,14.60
2017-08-12T18:57:21.436Z,14.50
2017-08-12T18:59:49.700Z,14.40
2017-08-12T19:02:17.231Z,14.40
2017-08-12T19:04:44.735Z,14.40
2017-08-12T19:07:12.232Z,14.40
2017-08-12T19:09:39.751Z,14.40
2017-08-12T19:12:07.256Z,14.40
2017-08-12T19:14:34.783Z,14.40
2017-08-12T19:17:02.291Z,14.40
2017-08-12T19:19:29.791Z,14.40
2017-08-12T19:21:57.315Z,14.40
2017-08-12T19:24:24.811Z,14.40
2017-08-12T19:26:52.351Z,14.40
2017-08-12T19:29:20.615Z,14.40
2017-08-12T19:31:48.125Z,14.30
2017-08-12T19:34:15.643Z,14.30
2017-08-12T19:36:43.923Z,14.20
2017-08-12T19:39:12.211Z,14.20
2017-08-12T19:41:39.711Z,14.20
2017-08-12T19:44:07.246Z,14.20
2017-08-12T19:46:34.743Z,14.20
2017-08-12T19:49:02.242Z,14.20
2017-08-12T19:51:29.762Z,14.20
2017-08-12T19:53:57.274Z,14.10
2017-08-12T19:56:24.792Z,14.20
2017-08-12T19:58:53.071Z,14.20
2017-08-12T20:01:21.443Z,14.10
2017-08-12T20:03:48.967Z,14.10
2017-08-12T20:06:16.467Z,14.10
2017-08-12T20:08:44.750Z,14.00
2017-08-12T20:11:13.023Z,14.00
2017-08-12T20:13:41.298Z,13.90
2017-08-12T20:16:08.826Z,13.90
2017-08-12T20:18:36.331Z,13.90
2017-08-12T20:21:03.884Z,13.90
2017-08-12T20:23:31.394Z,13.80
2017-08-12T20:25:58.905Z,13.80
2017-08-12T20:28:26.426Z,13.80
2017-08-12T20:30:53.940Z,13.80
2017-08-12T20:33:21.467Z,13.80
2017-08-12T20:35:49.742Z,13.70
2017-08-12T20:38:18.035Z,13.70
2017-08-12T20:40:45.540Z,13.70
2017-08-12T20:43:13.046Z,13.70
2017-08-12T20:45:40.567Z,13.70
2017-08-12T20:48:08.076Z,13.60
2017-08-12T20:50:35.594Z,13.50
2017-08-12T20:53:03.100Z,13.50
2017-08-12T20:55:30.636Z,13.50
2017-08-12T20:57:58.141Z,13.50
2017-08-12T21:00:25.647Z,13.50
2017-08-12T21:02:53.926Z,13.60
2017-08-12T21:05:22.186Z,13.60
2017-08-12T21:07:49.702Z,13.60
2017-08-12T21:10:17.203Z,13.60
2017-08-12T21:12:45.515Z,13.50
2017-08-12T21:15:13.019Z,13.50
2017-08-12T21:17:40.523Z,13.60
2017-08-12T21:20:08.050Z,13.50
2017-08-12T21:22:35.547Z,13.60
2017-08-12T21:25:03.071Z,13.60
2017-08-12T21:27:31.343Z,13.50
2017-08-12T21:29:58.863Z,13.50
2017-08-12T21:32:26.363Z,13.50
2017-08-12T21:34:53.864Z,13.50
2017-08-12T21:37:21.382Z,13.50
2017-08-12T21:39:49.952Z,13.60
2017-08-12T21:42:17.474Z,13.60
2017-08-12T21:44:44.970Z,13.70
2017-08-12T21:47:12.496Z,13.70
2017-08-12T21:49:40.003Z,13.70
2017-08-12T21:52:08.270Z,13.60
2017-08-12T21:54:36.547Z,13.50
2017-08-12T21:57:04.811Z,13.50
2017-08-12T21:59:32.327Z,13.40
2017-08-12T22:01:59.831Z,13.40
2017-08-12T22:04:27.363Z,13.40
2017-08-12T22:06:54.862Z,13.40
2017-08-12T22:09:23.140Z,13.40
2017-08-12T22:11:51.431Z,13.40
2017-08-12T22:14:18.931Z,13.40
2017-08-12T22:16:46.454Z,13.40
2017-08-12T22:19:13.962Z,13.30
2017-08-12T22:21:41.499Z,13.30
2017-08-12T22:24:08.999Z,13.30
2017-08-12T22:26:37.263Z,13.20
2017-08-12T22:29:04.787Z,13.10
2017-08-12T22:31:32.298Z,13.10
2017-08-12T22:34:00.591Z,13.00
2017-08-12T22:36:28.095Z,13.00
2017-08-12T22:38:55.632Z,13.00
2017-08-12T22:41:23.141Z,12.90
2017-08-12T22:43:51.406Z,12.90
2017-08-12T22:46:18.924Z,12.90
2017-08-12T22:48:46.432Z,12.90
2017-08-12T22:51:14.715Z,13.00
2017-08-12T22:53:42.975Z,13.00
2017-08-12T22:56:10.495Z,13.00
2017-08-12T22:58:37.990Z,13.00
2017-08-12T23:01:05.486Z,13.00
2017-08-12T23:03:32.995Z,13.00
2017-08-12T23:06:00.496Z,13.10
2017-08-12T23:08:28.014Z,13.20
2017-08-12T23:10:55.516Z,13.10
2017-08-12T23:13:23.036Z,13.10
2017-08-12T23:15:50.538Z,13.10
2017-08-12T23:18:18.042Z,13.20
2017-08-12T23:20:45.560Z,13.20
2017-08-12T23:23:13.059Z,13.20
2017-08-12T23:25:40.599Z,13.20
2017-08-12T23:28:08.095Z,13.20
2017-08-12T23:30:36.367Z,13.30
2017-08-12T23:33:03.895Z,13.30
2017-08-12T23:35:31.390Z,13.30
2017-08-12T23:37:58.923Z,13.30
2017-08-12T23:40:26.423Z,13.20
2017-08-12T23:42:53.926Z,13.20
2017-08-12T23:45:21.439Z,13.10
2017-08-12T23:47:48.938Z,13.10
2017-08-12T23:50:16.455Z,13.10
2017-08-12T23:52:44.008Z,13.00
2017-08-12T23:55:11.514Z,13.00
2017-08-12T23:57:39.027Z,12.90
